sensor_id;sensor_type;location;lat;lon;timestamp;P1;durP1;ratioP1;P2;durP2;ratioP2
21420;SDS011;10871;50.144;8.428;2022-10-16T00:01:36;4.68;;;3.55;;
21420;SDS011;10871;50.144;8.428;2022-10-16T00:04:04;5.07;;;3.67;;
21420;SDS011;10871;50.144;8.428;2022-10-16T00:06:31;5.40;;;3.30;;
21420;SDS011;10871;50.144;8.428;2022-10-16T00:08:57;9.93;;;4.90;;
21420;SDS011;10871;50.144;8.428;2022-10-16T00:11:25;4.72;;;3.58;;
21420;SDS011;10871;50.144;8.428;2022-10-16T00:13:54;4.43;;;3.17;;
21420;SDS011;10871;50.144;8.428;2022-10-16T00:16:20;4.72;;;3.50;;
21420;SDS011;10871;50.144;8.428;2022-10-16T00:18:47;5.93;;;3.72;;
21420;SDS011;10871;50.144;8.428;2022-10-16T00:21:15;6.75;;;4.03;;
21420;SDS011;10871;50.144;8.428;2022-10-16T00:23:42;9.75;;;3.40;;
21420;SDS011;10871;50.144;8.428;2022-10-16T00:26:09;7.07;;;4.07;;
21420;SDS011;10871;50.144;8.428;2022-10-16T00:28:36;11.55;;;3.83;;
21420;SDS011;10871;50.144;8.428;2022-10-16T00:31:07;5.70;;;3.75;;
21420;SDS011;10871;50.144;8.428;2022-10-16T00:33:34;9.55;;;3.85;;
21420;SDS011;10871;50.144;8.428;2022-10-16T00:36:01;6.65;;;3.90;;
21420;SDS011;10871;50.144;8.428;2022-10-16T00:38:27;6.22;;;3.88;;
21420;SDS011;10871;50.144;8.428;2022-10-16T00:40:54;7.18;;;4.05;;
21420;SDS011;10871;50.144;8.428;2022-10-16T00:43:34;5.53;;;3.90;;
21420;SDS011;10871;50.144;8.428;2022-10-16T00:46:01;6.63;;;3.92;;
21420;SDS011;10871;50.144;8.428;2022-10-16T00:48:28;6.65;;;3.80;;
21420;SDS011;10871;50.144;8.428;2022-10-16T00:50:55;5.97;;;4.72;;
21420;SDS011;10871;50.144;8.428;2022-10-16T00:53:22;7.38;;;4.25;;
21420;SDS011;10871;50.144;8.428;2022-10-16T00:55:49;7.72;;;4.40;;
21420;SDS011;10871;50.144;8.428;2022-10-16T00:58:15;13.80;;;4.97;;
21420;SDS011;10871;50.144;8.428;2022-10-16T01:00:42;9.27;;;5.07;;
21420;SDS011;10871;50.144;8.428;2022-10-16T01:03:25;7.40;;;4.90;;
21420;SDS011;10871;50.144;8.428;2022-10-16T01:05:55;8.02;;;4.57;;
21420;SDS011;10871;50.144;8.428;2022-10-16T01:08:27;5.65;;;4.53;;
21420;SDS011;10871;50.144;8.428;2022-10-16T01:10:57;10.68;;;5.13;;
21420;SDS011;10871;50.144;8.428;2022-10-16T01:13:24;9.40;;;5.50;;
21420;SDS011;10871;50.144;8.428;2022-10-16T01:16:01;5.43;;;4.85;;
21420;SDS011;10871;50.144;8.428;2022-10-16T01:18:39;8.23;;;5.20;;
21420;SDS011;10871;50.144;8.428;2022-10-16T01:21:12;9.52;;;5.38;;
21420;SDS011;10871;50.144;8.428;2022-10-16T01:23:51;5.97;;;4.65;;
21420;SDS011;10871;50.144;8.428;2022-10-16T01:26:27;8.57;;;5.35;;
21420;SDS011;10871;50.144;8.428;2022-10-16T01:31:30;6.78;;;5.45;;
21420;SDS011;10871;50.144;8.428;2022-10-16T01:34:12;7.32;;;5.63;;
21420;SDS011;10871;50.144;8.428;2022-10-16T01:36:42;11.65;;;5.55;;
21420;SDS011;10871;50.144;8.428;2022-10-16T01:39:11;10.88;;;5.60;;
21420;SDS011;10871;50.144;8.428;2022-10-16T01:41:39;11.27;;;5.57;;
21420;SDS011;10871;50.144;8.428;2022-10-16T01:44:08;8.93;;;5.72;;
21420;SDS011;10871;50.144;8.428;2022-10-16T01:46:37;11.13;;;6.32;;
21420;SDS011;10871;50.144;8.428;2022-10-16T01:49:05;6.60;;;5.78;;
21420;SDS011;10871;50.144;8.428;2022-10-16T01:51:32;10.07;;;5.60;;
21420;SDS011;10871;50.144;8.428;2022-10-16T01:53:59;6.38;;;5.60;;
21420;SDS011;10871;50.144;8.428;2022-10-16T01:56:27;8.77;;;6.38;;
21420;SDS011;10871;50.144;8.428;2022-10-16T01:58:58;8.85;;;6.43;;
21420;SDS011;10871;50.144;8.428;2022-10-16T02:01:28;7.37;;;6.47;;
21420;SDS011;10871;50.144;8.428;2022-10-16T02:03:57;10.50;;;7.15;;
21420;SDS011;10871;50.144;8.428;2022-10-16T02:06:24;13.95;;;8.23;;
21420;SDS011;10871;50.144;8.428;2022-10-16T02:08:51;8.30;;;7.38;;
21420;SDS011;10871;50.144;8.428;2022-10-16T02:11:19;8.75;;;7.43;;
21420;SDS011;10871;50.144;8.428;2022-10-16T02:13:50;10.80;;;8.88;;
21420;SDS011;10871;50.144;8.428;2022-10-16T02:16:18;12.50;;;8.50;;
21420;SDS011;10871;50.144;8.428;2022-10-16T02:18:45;11.38;;;8.57;;
21420;SDS011;10871;50.144;8.428;2022-10-16T02:21:25;10.95;;;8.23;;
21420;SDS011;10871;50.144;8.428;2022-10-16T02:24:00;10.93;;;8.60;;
21420;SDS011;10871;50.144;8.428;2022-10-16T02:26:30;12.40;;;8.40;;
21420;SDS011;10871;50.144;8.428;2022-10-16T02:28:59;12.95;;;9.25;;
21420;SDS011;10871;50.144;8.428;2022-10-16T02:31:27;11.48;;;8.30;;
21420;SDS011;10871;50.144;8.428;2022-10-16T02:33:54;15.25;;;8.63;;
21420;SDS011;10871;50.144;8.428;2022-10-16T02:36:22;14.00;;;9.40;;
21420;SDS011;10871;50.144;8.428;2022-10-16T02:38:49;11.77;;;8.93;;
21420;SDS011;10871;50.144;8.428;2022-10-16T02:41:15;11.07;;;8.82;;
21420;SDS011;10871;50.144;8.428;2022-10-16T02:43:41;13.55;;;8.52;;
21420;SDS011;10871;50.144;8.428;2022-10-16T02:46:08;12.63;;;9.07;;
21420;SDS011;10871;50.144;8.428;2022-10-16T02:48:34;18.35;;;9.50;;
21420;SDS011;10871;50.144;8.428;2022-10-16T02:51:01;15.25;;;10.88;;
21420;SDS011;10871;50.144;8.428;2022-10-16T02:53:28;19.55;;;11.52;;
21420;SDS011;10871;50.144;8.428;2022-10-16T02:55:54;17.38;;;12.52;;
21420;SDS011;10871;50.144;8.428;2022-10-16T02:58:20;18.90;;;12.73;;
21420;SDS011;10871;50.144;8.428;2022-10-16T03:00:47;19.58;;;12.25;;
21420;SDS011;10871;50.144;8.428;2022-10-16T03:03:14;21.67;;;13.40;;
21420;SDS011;10871;50.144;8.428;2022-10-16T03:05:40;16.77;;;12.32;;
21420;SDS011;10871;50.144;8.428;2022-10-16T03:08:06;18.08;;;12.25;;
21420;SDS011;10871;50.144;8.428;2022-10-16T03:10:33;16.60;;;12.90;;
21420;SDS011;10871;50.144;8.428;2022-10-16T03:12:59;17.27;;;13.50;;
21420;SDS011;10871;50.144;8.428;2022-10-16T03:15:25;17.48;;;12.32;;
21420;SDS011;10871;50.144;8.428;2022-10-16T03:17:52;23.85;;;13.45;;
21420;SDS011;10871;50.144;8.428;2022-10-16T03:20:18;19.02;;;13.30;;
21420;SDS011;10871;50.144;8.428;2022-10-16T03:22:44;23.92;;;13.85;;
21420;SDS011;10871;50.144;8.428;2022-10-16T03:25:11;19.98;;;12.85;;
21420;SDS011;10871;50.144;8.428;2022-10-16T03:27:37;19.27;;;13.20;;
21420;SDS011;10871;50.144;8.428;2022-10-16T03:30:03;17.15;;;12.10;;
21420;SDS011;10871;50.144;8.428;2022-10-16T03:32:30;11.10;;;9.50;;
21420;SDS011;10871;50.144;8.428;2022-10-16T03:34:56;15.23;;;10.18;;
21420;SDS011;10871;50.144;8.428;2022-10-16T03:37:23;11.52;;;10.00;;
21420;SDS011;10871;50.144;8.428;2022-10-16T03:39:50;14.25;;;9.35;;
21420;SDS011;10871;50.144;8.428;2022-10-16T03:42:16;13.25;;;9.52;;
21420;SDS011;10871;50.144;8.428;2022-10-16T03:44:42;12.07;;;10.88;;
21420;SDS011;10871;50.144;8.428;2022-10-16T03:47:09;12.98;;;10.63;;
21420;SDS011;10871;50.144;8.428;2022-10-16T03:49:35;13.00;;;10.18;;
21420;SDS011;10871;50.144;8.428;2022-10-16T03:52:01;11.38;;;10.23;;
21420;SDS011;10871;50.144;8.428;2022-10-16T03:54:28;15.40;;;12.13;;
21420;SDS011;10871;50.144;8.428;2022-10-16T03:56:54;12.68;;;11.00;;
21420;SDS011;10871;50.144;8.428;2022-10-16T03:59:20;12.43;;;9.98;;
21420;SDS011;10871;50.144;8.428;2022-10-16T04:01:46;12.43;;;9.77;;
21420;SDS011;10871;50.144;8.428;2022-10-16T04:04:13;13.93;;;9.75;;
21420;SDS011;10871;50.144;8.428;2022-10-16T04:06:39;14.77;;;9.52;;
21420;SDS011;10871;50.144;8.428;2022-10-16T04:09:05;10.32;;;9.10;;
21420;SDS011;10871;50.144;8.428;2022-10-16T04:11:32;12.15;;;10.02;;
21420;SDS011;10871;50.144;8.428;2022-10-16T04:13:58;12.95;;;8.90;;
21420;SDS011;10871;50.144;8.428;2022-10-16T04:16:24;11.20;;;9.45;;
21420;SDS011;10871;50.144;8.428;2022-10-16T04:18:50;12.82;;;9.73;;
21420;SDS011;10871;50.144;8.428;2022-10-16T04:21:17;13.35;;;9.05;;
21420;SDS011;10871;50.144;8.428;2022-10-16T04:23:43;10.88;;;8.52;;
21420;SDS011;10871;50.144;8.428;2022-10-16T04:26:10;12.52;;;8.73;;
21420;SDS011;10871;50.144;8.428;2022-10-16T04:28:36;11.45;;;8.63;;
21420;SDS011;10871;50.144;8.428;2022-10-16T04:31:03;10.63;;;8.13;;
21420;SDS011;10871;50.144;8.428;2022-10-16T04:33:30;11.90;;;7.63;;
21420;SDS011;10871;50.144;8.428;2022-10-16T04:35:57;11.05;;;8.02;;
21420;SDS011;10871;50.144;8.428;2022-10-16T04:38:23;9.30;;;8.15;;
21420;SDS011;10871;50.144;8.428;2022-10-16T04:40:49;13.40;;;8.90;;
21420;SDS011;10871;50.144;8.428;2022-10-16T04:43:16;11.40;;;8.70;;
21420;SDS011;10871;50.144;8.428;2022-10-16T04:45:42;10.43;;;9.23;;
21420;SDS011;10871;50.144;8.428;2022-10-16T04:48:09;10.55;;;9.52;;
21420;SDS011;10871;50.144;8.428;2022-10-16T04:50:35;11.52;;;9.07;;
21420;SDS011;10871;50.144;8.428;2022-10-16T04:53:05;13.10;;;10.25;;
21420;SDS011;10871;50.144;8.428;2022-10-16T04:55:31;13.52;;;10.13;;
21420;SDS011;10871;50.144;8.428;2022-10-16T04:57:58;13.98;;;10.68;;
21420;SDS011;10871;50.144;8.428;2022-10-16T05:00:24;14.38;;;10.88;;
21420;SDS011;10871;50.144;8.428;2022-10-16T05:02:50;15.80;;;10.80;;
21420;SDS011;10871;50.144;8.428;2022-10-16T05:05:17;10.88;;;9.80;;
21420;SDS011;10871;50.144;8.428;2022-10-16T05:07:45;13.50;;;10.65;;
21420;SDS011;10871;50.144;8.428;2022-10-16T05:10:12;17.00;;;10.73;;
21420;SDS011;10871;50.144;8.428;2022-10-16T05:12:38;12.20;;;10.82;;
21420;SDS011;10871;50.144;8.428;2022-10-16T05:15:05;13.13;;;10.63;;
21420;SDS011;10871;50.144;8.428;2022-10-16T05:17:31;12.13;;;10.40;;
21420;SDS011;10871;50.144;8.428;2022-10-16T05:19:57;14.00;;;10.45;;
21420;SDS011;10871;50.144;8.428;2022-10-16T05:22:24;15.30;;;11.70;;
21420;SDS011;10871;50.144;8.428;2022-10-16T05:24:50;19.95;;;12.13;;
21420;SDS011;10871;50.144;8.428;2022-10-16T05:27:16;15.40;;;12.00;;
21420;SDS011;10871;50.144;8.428;2022-10-16T05:29:46;18.70;;;13.80;;
21420;SDS011;10871;50.144;8.428;2022-10-16T05:32:13;15.82;;;13.55;;
21420;SDS011;10871;50.144;8.428;2022-10-16T05:34:39;18.27;;;14.13;;
21420;SDS011;10871;50.144;8.428;2022-10-16T05:37:06;18.25;;;13.75;;
21420;SDS011;10871;50.144;8.428;2022-10-16T05:39:32;17.70;;;14.57;;
21420;SDS011;10871;50.144;8.428;2022-10-16T05:41:58;18.60;;;14.63;;
21420;SDS011;10871;50.144;8.428;2022-10-16T05:44:25;15.80;;;13.90;;
21420;SDS011;10871;50.144;8.428;2022-10-16T05:46:51;18.88;;;14.23;;
21420;SDS011;10871;50.144;8.428;2022-10-16T05:49:17;17.17;;;14.57;;
21420;SDS011;10871;50.144;8.428;2022-10-16T05:51:44;20.85;;;14.43;;
21420;SDS011;10871;50.144;8.428;2022-10-16T05:54:10;20.17;;;15.00;;
21420;SDS011;10871;50.144;8.428;2022-10-16T05:56:36;20.48;;;15.15;;
21420;SDS011;10871;50.144;8.428;2022-10-16T05:59:03;20.25;;;15.18;;
21420;SDS011;10871;50.144;8.428;2022-10-16T06:01:30;20.05;;;14.65;;
21420;SDS011;10871;50.144;8.428;2022-10-16T06:03:57;21.38;;;14.98;;
21420;SDS011;10871;50.144;8.428;2022-10-16T06:06:24;22.63;;;15.80;;
21420;SDS011;10871;50.144;8.428;2022-10-16T06:08:52;21.15;;;14.68;;
21420;SDS011;10871;50.144;8.428;2022-10-16T06:11:20;17.17;;;14.18;;
21420;SDS011;10871;50.144;8.428;2022-10-16T06:13:50;18.98;;;14.48;;
21420;SDS011;10871;50.144;8.428;2022-10-16T06:16:17;21.58;;;14.25;;
21420;SDS011;10871;50.144;8.428;2022-10-16T06:18:43;18.05;;;14.57;;
21420;SDS011;10871;50.144;8.428;2022-10-16T06:21:17;21.90;;;14.52;;
21420;SDS011;10871;50.144;8.428;2022-10-16T06:23:44;17.52;;;14.85;;
21420;SDS011;10871;50.144;8.428;2022-10-16T06:26:17;16.48;;;14.38;;
21420;SDS011;10871;50.144;8.428;2022-10-16T06:28:44;21.27;;;14.40;;
21420;SDS011;10871;50.144;8.428;2022-10-16T06:31:11;20.23;;;14.65;;
21420;SDS011;10871;50.144;8.428;2022-10-16T06:33:37;15.50;;;13.15;;
21420;SDS011;10871;50.144;8.428;2022-10-16T06:36:08;16.08;;;12.20;;
21420;SDS011;10871;50.144;8.428;2022-10-16T06:38:35;16.92;;;12.50;;
21420;SDS011;10871;50.144;8.428;2022-10-16T06:41:01;16.83;;;14.55;;
21420;SDS011;10871;50.144;8.428;2022-10-16T06:43:28;18.05;;;15.02;;
21420;SDS011;10871;50.144;8.428;2022-10-16T06:45:58;15.38;;;11.15;;
21420;SDS011;10871;50.144;8.428;2022-10-16T06:48:25;10.10;;;9.10;;
21420;SDS011;10871;50.144;8.428;2022-10-16T06:53:24;13.52;;;10.45;;
21420;SDS011;10871;50.144;8.428;2022-10-16T06:55:50;18.55;;;10.40;;
21420;SDS011;10871;50.144;8.428;2022-10-16T06:58:17;13.88;;;9.20;;
21420;SDS011;10871;50.144;8.428;2022-10-16T07:00:43;10.50;;;8.30;;
21420;SDS011;10871;50.144;8.428;2022-10-16T07:03:09;12.75;;;8.65;;
21420;SDS011;10871;50.144;8.428;2022-10-16T07:05:39;12.73;;;9.73;;
21420;SDS011;10871;50.144;8.428;2022-10-16T07:08:06;11.25;;;9.15;;
21420;SDS011;10871;50.144;8.428;2022-10-16T07:10:33;10.48;;;9.48;;
21420;SDS011;10871;50.144;8.428;2022-10-16T07:12:59;10.60;;;8.90;;
21420;SDS011;10871;50.144;8.428;2022-10-16T07:15:26;11.65;;;8.88;;
21420;SDS011;10871;50.144;8.428;2022-10-16T07:17:52;9.88;;;8.27;;
21420;SDS011;10871;50.144;8.428;2022-10-16T07:20:19;11.98;;;10.32;;
21420;SDS011;10871;50.144;8.428;2022-10-16T07:22:45;16.30;;;12.02;;
21420;SDS011;10871;50.144;8.428;2022-10-16T07:25:12;17.50;;;12.45;;
21420;SDS011;10871;50.144;8.428;2022-10-16T07:27:38;17.77;;;11.07;;
21420;SDS011;10871;50.144;8.428;2022-10-16T07:30:05;13.52;;;10.98;;
21420;SDS011;10871;50.144;8.428;2022-10-16T07:32:34;16.65;;;8.63;;
21420;SDS011;10871;50.144;8.428;2022-10-16T07:35:00;12.93;;;7.75;;
21420;SDS011;10871;50.144;8.428;2022-10-16T07:37:27;12.15;;;8.10;;
21420;SDS011;10871;50.144;8.428;2022-10-16T07:39:54;10.63;;;8.27;;
21420;SDS011;10871;50.144;8.428;2022-10-16T07:42:20;11.70;;;6.68;;
21420;SDS011;10871;50.144;8.428;2022-10-16T07:44:46;10.80;;;5.95;;
21420;SDS011;10871;50.144;8.428;2022-10-16T07:47:13;9.98;;;6.10;;
21420;SDS011;10871;50.144;8.428;2022-10-16T07:49:39;8.63;;;6.05;;
21420;SDS011;10871;50.144;8.428;2022-10-16T07:52:05;6.93;;;5.65;;
21420;SDS011;10871;50.144;8.428;2022-10-16T07:54:32;9.70;;;5.53;;
21420;SDS011;10871;50.144;8.428;2022-10-16T07:56:58;8.77;;;5.30;;
21420;SDS011;10871;50.144;8.428;2022-10-16T07:59:24;9.38;;;5.13;;
21420;SDS011;10871;50.144;8.428;2022-10-16T08:01:51;7.57;;;4.88;;
21420;SDS011;10871;50.144;8.428;2022-10-16T08:04:17;7.47;;;4.53;;
21420;SDS011;10871;50.144;8.428;2022-10-16T08:06:44;7.65;;;4.78;;
21420;SDS011;10871;50.144;8.428;2022-10-16T08:09:10;13.32;;;4.80;;
21420;SDS011;10871;50.144;8.428;2022-10-16T08:11:36;6.93;;;4.40;;
21420;SDS011;10871;50.144;8.428;2022-10-16T08:14:03;5.25;;;4.05;;
21420;SDS011;10871;50.144;8.428;2022-10-16T08:16:29;9.48;;;4.30;;
21420;SDS011;10871;50.144;8.428;2022-10-16T08:18:55;7.65;;;4.20;;
21420;SDS011;10871;50.144;8.428;2022-10-16T08:21:22;8.73;;;4.53;;
21420;SDS011;10871;50.144;8.428;2022-10-16T08:23:52;6.22;;;4.30;;
21420;SDS011;10871;50.144;8.428;2022-10-16T08:26:23;7.45;;;4.10;;
21420;SDS011;10871;50.144;8.428;2022-10-16T08:28:49;6.40;;;4.28;;
21420;SDS011;10871;50.144;8.428;2022-10-16T08:31:17;6.38;;;4.10;;
21420;SDS011;10871;50.144;8.428;2022-10-16T08:33:44;9.15;;;4.55;;
21420;SDS011;10871;50.144;8.428;2022-10-16T08:36:12;6.88;;;4.30;;
21420;SDS011;10871;50.144;8.428;2022-10-16T08:38:39;9.45;;;5.13;;
21420;SDS011;10871;50.144;8.428;2022-10-16T08:41:17;5.68;;;4.97;;
21420;SDS011;10871;50.144;8.428;2022-10-16T08:43:55;8.68;;;5.63;;
21420;SDS011;10871;50.144;8.428;2022-10-16T08:49:05;7.57;;;5.40;;
21420;SDS011;10871;50.144;8.428;2022-10-16T08:51:36;6.47;;;5.15;;
21420;SDS011;10871;50.144;8.428;2022-10-16T08:56:37;5.35;;;4.50;;
21420;SDS011;10871;50.144;8.428;2022-10-16T08:59:04;4.65;;;4.13;;
21420;SDS011;10871;50.144;8.428;2022-10-16T09:01:36;7.47;;;4.15;;
21420;SDS011;10871;50.144;8.428;2022-10-16T09:06:40;4.57;;;3.38;;
21420;SDS011;10871;50.144;8.428;2022-10-16T09:09:20;5.97;;;3.40;;
21420;SDS011;10871;50.144;8.428;2022-10-16T09:16:48;6.68;;;4.00;;
21420;SDS011;10871;50.144;8.428;2022-10-16T09:19:21;7.57;;;3.63;;
21420;SDS011;10871;50.144;8.428;2022-10-16T09:21:49;3.80;;;3.20;;
21420;SDS011;10871;50.144;8.428;2022-10-16T09:24:16;5.10;;;3.13;;
21420;SDS011;10871;50.144;8.428;2022-10-16T09:26:43;3.42;;;3.10;;
21420;SDS011;10871;50.144;8.428;2022-10-16T09:29:16;7.88;;;3.63;;
21420;SDS011;10871;50.144;8.428;2022-10-16T09:31:43;3.33;;;2.93;;
21420;SDS011;10871;50.144;8.428;2022-10-16T09:34:17;5.68;;;3.40;;
21420;SDS011;10871;50.144;8.428;2022-10-16T09:36:47;5.50;;;3.13;;
21420;SDS011;10871;50.144;8.428;2022-10-16T09:39:14;5.68;;;3.85;;
21420;SDS011;10871;50.144;8.428;2022-10-16T09:41:41;4.25;;;3.67;;
21420;SDS011;10871;50.144;8.428;2022-10-16T09:44:22;4.70;;;3.75;;
21420;SDS011;10871;50.144;8.428;2022-10-16T09:47:00;5.20;;;3.47;;
21420;SDS011;10871;50.144;8.428;2022-10-16T09:49:26;5.50;;;3.42;;
21420;SDS011;10871;50.144;8.428;2022-10-16T09:54:49;5.18;;;3.30;;
21420;SDS011;10871;50.144;8.428;2022-10-16T09:57:16;3.90;;;3.30;;
21420;SDS011;10871;50.144;8.428;2022-10-16T09:59:49;5.78;;;4.03;;
21420;SDS011;10871;50.144;8.428;2022-10-16T10:02:16;4.55;;;3.72;;
21420;SDS011;10871;50.144;8.428;2022-10-16T10:04:53;4.85;;;3.15;;
21420;SDS011;10871;50.144;8.428;2022-10-16T10:07:24;5.55;;;3.28;;
21420;SDS011;10871;50.144;8.428;2022-10-16T10:09:51;4.28;;;2.90;;
21420;SDS011;10871;50.144;8.428;2022-10-16T10:12:22;4.63;;;2.40;;
21420;SDS011;10871;50.144;8.428;2022-10-16T10:17:20;2.33;;;2.13;;
21420;SDS011;10871;50.144;8.428;2022-10-16T10:22:29;3.65;;;2.03;;
21420;SDS011;10871;50.144;8.428;2022-10-16T10:24:57;2.88;;;2.30;;
21420;SDS011;10871;50.144;8.428;2022-10-16T10:27:26;4.20;;;2.17;;
21420;SDS011;10871;50.144;8.428;2022-10-16T10:32:50;5.30;;;2.80;;
21420;SDS011;10871;50.144;8.428;2022-10-16T10:35:22;3.17;;;2.22;;
21420;SDS011;10871;50.144;8.428;2022-10-16T10:40:30;5.50;;;2.22;;
21420;SDS011;10871;50.144;8.428;2022-10-16T10:45:46;2.63;;;1.73;;
21420;SDS011;10871;50.144;8.428;2022-10-16T10:48:16;1.77;;;1.55;;
21420;SDS011;10871;50.144;8.428;2022-10-16T10:50:50;2.28;;;1.98;;
21420;SDS011;10871;50.144;8.428;2022-10-16T10:53:24;2.85;;;1.85;;
21420;SDS011;10871;50.144;8.428;2022-10-16T10:55:57;6.72;;;2.50;;
21420;SDS011;10871;50.144;8.428;2022-10-16T11:01:07;5.75;;;1.90;;
21420;SDS011;10871;50.144;8.428;2022-10-16T11:06:24;1.92;;;1.70;;
21420;SDS011;10871;50.144;8.428;2022-10-16T11:11:25;2.97;;;1.85;;
21420;SDS011;10871;50.144;8.428;2022-10-16T11:14:30;1.90;;;1.63;;
21420;SDS011;10871;50.144;8.428;2022-10-16T11:16:52;4.30;;;1.35;;
21420;SDS011;10871;50.144;8.428;2022-10-16T11:19:25;3.40;;;1.65;;
21420;SDS011;10871;50.144;8.428;2022-10-16T11:22:00;2.67;;;1.57;;
21420;SDS011;10871;50.144;8.428;2022-10-16T11:24:41;1.92;;;1.60;;
21420;SDS011;10871;50.144;8.428;2022-10-16T11:27:11;1.90;;;1.70;;
21420;SDS011;10871;50.144;8.428;2022-10-16T11:29:45;1.98;;;1.80;;
21420;SDS011;10871;50.144;8.428;2022-10-16T11:32:20;2.60;;;1.73;;
21420;SDS011;10871;50.144;8.428;2022-10-16T11:34:49;3.05;;;1.98;;
21420;SDS011;10871;50.144;8.428;2022-10-16T11:37:32;2.58;;;1.40;;
21420;SDS011;10871;50.144;8.428;2022-10-16T11:40:14;3.67;;;1.60;;
21420;SDS011;10871;50.144;8.428;2022-10-16T11:42:44;1.63;;;1.50;;
21420;SDS011;10871;50.144;8.428;2022-10-16T11:45:33;3.35;;;1.70;;
21420;SDS011;10871;50.144;8.428;2022-10-16T11:50:43;1.98;;;1.83;;
21420;SDS011;10871;50.144;8.428;2022-10-16T11:55:41;3.97;;;1.80;;
21420;SDS011;10871;50.144;8.428;2022-10-16T11:58:22;2.15;;;1.75;;
21420;SDS011;10871;50.144;8.428;2022-10-16T12:00:55;2.50;;;1.75;;
21420;SDS011;10871;50.144;8.428;2022-10-16T12:03:39;2.67;;;1.77;;
21420;SDS011;10871;50.144;8.428;2022-10-16T12:08:36;1.70;;;1.60;;
21420;SDS011;10871;50.144;8.428;2022-10-16T12:11:20;2.83;;;1.50;;
21420;SDS011;10871;50.144;8.428;2022-10-16T12:13:47;2.47;;;1.83;;
21420;SDS011;10871;50.144;8.428;2022-10-16T12:18:41;2.03;;;1.60;;
21420;SDS011;10871;50.144;8.428;2022-10-16T12:21:08;1.98;;;1.75;;
21420;SDS011;10871;50.144;8.428;2022-10-16T12:23:45;5.25;;;1.83;;
21420;SDS011;10871;50.144;8.428;2022-10-16T12:26:12;5.22;;;1.98;;
21420;SDS011;10871;50.144;8.428;2022-10-16T12:28:39;2.85;;;1.77;;
21420;SDS011;10871;50.144;8.428;2022-10-16T12:31:07;5.20;;;2.00;;
21420;SDS011;10871;50.144;8.428;2022-10-16T12:33:36;1.70;;;1.60;;
21420;SDS011;10871;50.144;8.428;2022-10-16T12:36:05;2.05;;;1.65;;
21420;SDS011;10871;50.144;8.428;2022-10-16T12:38:36;6.15;;;1.70;;
21420;SDS011;10871;50.144;8.428;2022-10-16T12:41:04;3.30;;;1.63;;
21420;SDS011;10871;50.144;8.428;2022-10-16T12:46:05;2.03;;;1.60;;
21420;SDS011;10871;50.144;8.428;2022-10-16T12:48:31;3.92;;;1.60;;
21420;SDS011;10871;50.144;8.428;2022-10-16T12:54:01;4.72;;;2.00;;
21420;SDS011;10871;50.144;8.428;2022-10-16T13:05:25;3.15;;;1.90;;
21420;SDS011;10871;50.144;8.428;2022-10-16T13:07:34;1.98;;;1.80;;
21420;SDS011;10871;50.144;8.428;2022-10-16T13:17:42;4.97;;;2.00;;
21420;SDS011;10871;50.144;8.428;2022-10-16T13:20:16;2.15;;;1.52;;
21420;SDS011;10871;50.144;8.428;2022-10-16T13:25:36;2.67;;;1.80;;
21420;SDS011;10871;50.144;8.428;2022-10-16T13:28:06;1.95;;;1.70;;
21420;SDS011;10871;50.144;8.428;2022-10-16T13:30:36;2.28;;;1.83;;
21420;SDS011;10871;50.144;8.428;2022-10-16T13:33:06;1.80;;;1.60;;
21420;SDS011;10871;50.144;8.428;2022-10-16T13:35:33;5.80;;;1.70;;
21420;SDS011;10871;50.144;8.428;2022-10-16T13:38:14;2.38;;;1.80;;
21420;SDS011;10871;50.144;8.428;2022-10-16T13:40:50;1.60;;;1.50;;
21420;SDS011;10871;50.144;8.428;2022-10-16T13:44:02;1.60;;;1.50;;
21420;SDS011;10871;50.144;8.428;2022-10-16T13:46:11;2.60;;;1.83;;
21420;SDS011;10871;50.144;8.428;2022-10-16T13:53:39;2.85;;;1.80;;
21420;SDS011;10871;50.144;8.428;2022-10-16T13:56:09;4.32;;;1.80;;
21420;SDS011;10871;50.144;8.428;2022-10-16T13:58:36;2.60;;;1.58;;
21420;SDS011;10871;50.144;8.428;2022-10-16T14:01:03;1.95;;;1.70;;
21420;SDS011;10871;50.144;8.428;2022-10-16T14:03:31;2.45;;;1.70;;
21420;SDS011;10871;50.144;8.428;2022-10-16T14:06:02;4.20;;;1.90;;
21420;SDS011;10871;50.144;8.428;2022-10-16T14:08:29;3.45;;;1.65;;
21420;SDS011;10871;50.144;8.428;2022-10-16T14:10:57;3.05;;;1.80;;
21420;SDS011;10871;50.144;8.428;2022-10-16T14:15:54;1.70;;;1.60;;
21420;SDS011;10871;50.144;8.428;2022-10-16T14:18:24;3.60;;;1.50;;
21420;SDS011;10871;50.144;8.428;2022-10-16T14:20:51;2.00;;;1.85;;
21420;SDS011;10871;50.144;8.428;2022-10-16T14:25:44;2.55;;;1.80;;
21420;SDS011;10871;50.144;8.428;2022-10-16T14:30:48;6.50;;;1.98;;
21420;SDS011;10871;50.144;8.428;2022-10-16T14:33:20;4.68;;;1.80;;
21420;SDS011;10871;50.144;8.428;2022-10-16T14:35:56;2.15;;;1.90;;
21420;SDS011;10871;50.144;8.428;2022-10-16T14:38:24;1.90;;;1.73;;
21420;SDS011;10871;50.144;8.428;2022-10-16T14:40:50;2.95;;;2.00;;
21420;SDS011;10871;50.144;8.428;2022-10-16T14:43:22;1.70;;;1.52;;
21420;SDS011;10871;50.144;8.428;2022-10-16T14:45:52;2.28;;;1.60;;
21420;SDS011;10871;50.144;8.428;2022-10-16T14:48:20;4.70;;;1.48;;
21420;SDS011;10871;50.144;8.428;2022-10-16T14:50:46;2.92;;;1.80;;
21420;SDS011;10871;50.144;8.428;2022-10-16T14:53:13;2.20;;;1.77;;
21420;SDS011;10871;50.144;8.428;2022-10-16T14:55:39;1.85;;;1.60;;
21420;SDS011;10871;50.144;8.428;2022-10-16T14:58:09;3.20;;;1.73;;
21420;SDS011;10871;50.144;8.428;2022-10-16T15:00:38;4.00;;;1.60;;
21420;SDS011;10871;50.144;8.428;2022-10-16T15:03:04;2.67;;;1.75;;
21420;SDS011;10871;50.144;8.428;2022-10-16T15:05:30;5.95;;;1.80;;
21420;SDS011;10871;50.144;8.428;2022-10-16T15:07:58;8.27;;;2.10;;
21420;SDS011;10871;50.144;8.428;2022-10-16T15:10:25;4.30;;;1.95;;
21420;SDS011;10871;50.144;8.428;2022-10-16T15:12:53;3.92;;;1.90;;
21420;SDS011;10871;50.144;8.428;2022-10-16T15:17:49;2.30;;;1.80;;
21420;SDS011;10871;50.144;8.428;2022-10-16T15:20:19;3.40;;;2.20;;
21420;SDS011;10871;50.144;8.428;2022-10-16T15:22:45;6.22;;;2.17;;
21420;SDS011;10871;50.144;8.428;2022-10-16T15:25:29;3.45;;;2.03;;
21420;SDS011;10871;50.144;8.428;2022-10-16T15:27:57;4.55;;;2.03;;
21420;SDS011;10871;50.144;8.428;2022-10-16T15:30:24;2.85;;;2.22;;
21420;SDS011;10871;50.144;8.428;2022-10-16T15:32:50;2.40;;;2.20;;
21420;SDS011;10871;50.144;8.428;2022-10-16T15:35:16;2.80;;;2.30;;
21420;SDS011;10871;50.144;8.428;2022-10-16T15:37:43;3.95;;;2.60;;
21420;SDS011;10871;50.144;8.428;2022-10-16T15:40:10;3.47;;;2.03;;
21420;SDS011;10871;50.144;8.428;2022-10-16T15:42:36;7.03;;;2.40;;
21420;SDS011;10871;50.144;8.428;2022-10-16T15:45:02;2.58;;;2.20;;
21420;SDS011;10871;50.144;8.428;2022-10-16T15:47:30;4.47;;;2.20;;
21420;SDS011;10871;50.144;8.428;2022-10-16T15:49:56;4.22;;;2.30;;
21420;SDS011;10871;50.144;8.428;2022-10-16T15:52:22;3.35;;;2.20;;
21420;SDS011;10871;50.144;8.428;2022-10-16T15:54:50;8.30;;;2.30;;
21420;SDS011;10871;50.144;8.428;2022-10-16T15:57:20;4.88;;;2.40;;
21420;SDS011;10871;50.144;8.428;2022-10-16T15:59:46;2.63;;;2.35;;
21420;SDS011;10871;50.144;8.428;2022-10-16T16:02:12;4.18;;;2.30;;
21420;SDS011;10871;50.144;8.428;2022-10-16T16:04:39;4.93;;;2.90;;
21420;SDS011;10871;50.144;8.428;2022-10-16T16:07:10;3.35;;;2.42;;
21420;SDS011;10871;50.144;8.428;2022-10-16T16:09:36;2.70;;;2.30;;
21420;SDS011;10871;50.144;8.428;2022-10-16T16:12:03;3.15;;;2.85;;
21420;SDS011;10871;50.144;8.428;2022-10-16T16:14:29;4.28;;;2.50;;
21420;SDS011;10871;50.144;8.428;2022-10-16T16:16:56;5.03;;;2.80;;
21420;SDS011;10871;50.144;8.428;2022-10-16T16:19:23;6.93;;;3.00;;
21420;SDS011;10871;50.144;8.428;2022-10-16T16:21:49;4.15;;;2.63;;